罗盘
风向 的 风向 的 风向 到 风向 180° Leer-Papenburg Airport 8/26
风: 4 kt, 2 beaufort

1 kt

4 kt
改变
0 1.000 2.000 3.000 4.000 5.000
SCT 800 ft
METAR EDWE 281020Z 18004KT 140V240 9999 SCT008 11/09 Q0996

METAR Leer-Papenburg Airport - EDWF

Leer-Papenburg Airport是Leer,德国中的小机场。 该机场有一条跑道: 8/26. 该领域的国际民航组织标志是EDWF.

这份报告是针对2022年9月28日 12:20, 当地时间在Emden Airport进行的。

机场观察

风向为180°,速度为4 kt。 风向在140°和240°之间变化。

可见度为10 km 或者更多。

有疏云,零星散落的云朵在800 ft的高度。 没有观察到天花板。

温度和风寒是11 °C。 露点为9 °C,相对湿度为88%。 海平面上的气压为996 hPa (QNH)。

白天

今天,太阳从07:26升起,在19:15降落。 这适用于Leer-Papenburg Airport,世界夏令时可能有所不同。 当地时间与世界标准时间之间的时差为+2 小时。 夏令时目前正在进行中。

公司介绍

我们没有关于这个机场的公司信息。

体会

到Vliegles.nl去找飞行课程,跳伞和其他飞行体验。 浏览页面,了解Leer-Papenburg Airport附近所有可用的活动。 你也可以使用搜索功能来寻找你所在地附近的特定飞行课程、跳伞或其他飞行体验。

跑道

Id 标题 侧风 逆风 侧风 %
8/26 079°-259° 4 kt 98 %

逆风成分最大的方向会被突出显示,并用于横风计算。 这并不一定意味着这个方向在使用。

乌云

800 ft SCT 疏云,零星散落的云朵

温度 & 天气

温度 11 °C
露点 9 °C
相对湿度 88%
Kp-index 0 (0-9)

白天

日出
07:27
中午
13:21
日落
19:16 (5h 21m)

小工具

你想在你的网站上有一个关于Leer-Papenburg Airport的当前航空天气(METAR)的小部件吗?

</> 显示HTML代码

我们和第三方通过cookies跟踪您在我们网站上的上网行为。如果您继续,我们认为您同意我们的cookie政策。 了解更多